Terminal Aerodrome Forecast
Issued by NWS Flagstaff, AZ

Home | Current Version | Previous Version | Text Only | Print | Product List | Glossary On
Versions: 1 2 3 4 5 6 7 8 9 10 11 12
000
FTUS45 KFGZ 261139
TAFFLG
TAF
KFLG 261139Z 2612/2712 VRB05KT P6SM FEW110 SCT200
     FM261800 07010G15KT P6SM BKN120
     FM270200 VRB03KT P6SM BKN120=

USA.gov is the U.S. government's official web portal to all federal, state and local government web resources and services.